Watertown, WI

11:30 AM CDT on September 25, 2016 (GMT -0500)
Watertown Municipal

Weather History for KRYV - February, 2013

Change the Weather History Date:

Friday, February 15, 2013

  Actual Average Record
Temperature  
Mean Temperature 19 °F -  
Max Temperature 26 °F 31 °F 59 °F (1954)
Min Temperature 12 °F 15 °F -13 °F (1963)
Degree Days  
Heating Degree Days 46    
Moisture  
Dew Point 8 °F    
Average Humidity 63    
Maximum Humidity 86    
Minimum Humidity 49    
Precipitation  
Precipitation 0.00 in - - ()
Sea Level Pressure  
Sea Level Pressure 30.12 in    
Wind  
Wind Speed 10 mph (NW)    
Max Wind Speed 13 mph    
Max Gust Speed 20 mph    
Visibility 10 miles    
Events Snow    
Averages and records for this station are not official NWS values.
T = Trace of Precipitation, MM = Missing Value Source: NWS Daily Summary

Daily Weather History Graph

Daily Weather History Graph

Search for Another Location

Airport or City:

Trip Planner

Search our weather history database for the weather conditions in past years. The results will help you decide how hot, cold, wet, or windy it might be!

Date:

Astronomy

Feb. 15, 2013 Rise Set
Actual Time 6:52 AM CST 5:26 PM CST
Civil Twilight 6:23 AM CST 5:55 PM CST
Nautical Twilight 5:49 AM CST 6:28 PM CST
Astronomical Twilight 5:16 AM CST 7:01 PM CST
Moon 9:17 AM CST (2/15) 11:38 PM CST (2/15)
Length of Visible Light 11h 32m
Length of Day
10h 34m
Waxing Crescent, 30% of the Moon is Illuminated
Feb 15
Waxing Crescent
Feb 17
First Quarter
Feb 25
Full
Mar 4
Last Quarter
Mar 11
New

Hourly Weather History & Observations

Time (CST) Temp. Windchill Dew Point Humidity Pressure Visibility Wind Dir Wind Speed Gust Speed Precip Events Conditions
12:15 AM 26.2 °F 15.2 °F 22.5 °F 86% 29.98 in 7.0 mi North 12.7 mph 18.4 mph N/A Snow Light Snow
12:55 AM 25.7 °F 15.7 °F 21.2 °F 83% 29.99 in 10.0 mi North 10.4 mph 19.6 mph N/A   Overcast
1:15 AM 25.2 °F 14.4 °F 18.3 °F 75% 30.00 in 10.0 mi NNW 11.5 mph 18.4 mph N/A   Overcast
1:35 AM 24.1 °F 12.5 °F 16.3 °F 72% 30.01 in 10.0 mi North 12.7 mph 18.4 mph N/A   Overcast
1:55 AM 23.0 °F 11.1 °F 14.2 °F 69% 30.02 in 10.0 mi NNW 12.7 mph 17.3 mph N/A   Mostly Cloudy
2:15 AM 21.6 °F 10.6 °F 12.2 °F 67% 30.03 in 10.0 mi NNW 10.4 mph - N/A   Scattered Clouds
2:35 AM 21.2 °F 11.7 °F 12.2 °F 68% 30.04 in 10.0 mi NNW 8.1 mph - N/A   Mostly Cloudy
2:55 AM 20.5 °F 8.6 °F 12.6 °F 71% 30.05 in 10.0 mi NNW 11.5 mph 16.1 mph N/A   Overcast
3:15 AM 19.4 °F 7.9 °F 11.5 °F 71% 30.05 in 10.0 mi NNW 10.4 mph - N/A   Mostly Cloudy
3:35 AM 18.5 °F 7.5 °F 10.6 °F 71% 30.06 in 10.0 mi NNW 9.2 mph - N/A   Clear
3:55 AM 18.1 °F 8.9 °F 9.7 °F 70% 30.06 in 10.0 mi NW 6.9 mph - N/A   Clear
4:15 AM 17.4 °F 5.4 °F 9.5 °F 71% 30.07 in 10.0 mi NW 10.4 mph - N/A   Clear
4:35 AM 17.1 °F 7.6 °F 9.0 °F 71% 30.08 in 10.0 mi NW 6.9 mph - N/A   Clear
4:55 AM 16.5 °F 6.0 °F 8.6 °F 71% 30.09 in 10.0 mi NW 8.1 mph - N/A   Clear
5:15 AM 16.2 °F 5.5 °F 8.6 °F 72% 30.10 in 10.0 mi NW 8.1 mph - N/A   Clear
5:35 AM 15.6 °F 4.9 °F 8.4 °F 73% 30.10 in 10.0 mi NW 8.1 mph - N/A   Clear
5:55 AM 15.6 °F 5.9 °F 8.4 °F 73% 30.11 in 10.0 mi WNW 6.9 mph - N/A   Clear
6:15 AM 15.1 °F 4.2 °F 8.2 °F 74% 30.11 in 10.0 mi NW 8.1 mph - N/A   Clear
6:35 AM 14.9 °F 5.0 °F 8.2 °F 75% 30.11 in 10.0 mi NW 6.9 mph - N/A   Clear
6:55 AM 14.7 °F 3.8 °F 8.1 °F 75% 30.12 in 10.0 mi NW 8.1 mph - N/A   Clear
7:15 AM 14.5 °F 4.6 °F 7.7 °F 74% 30.13 in 10.0 mi NW 6.9 mph - N/A   Clear
7:35 AM 14.7 °F 5.9 °F 7.5 °F 73% 30.14 in 10.0 mi WNW 5.8 mph - N/A   Clear
7:55 AM 15.3 °F 5.4 °F 7.5 °F 71% 30.14 in 10.0 mi WNW 6.9 mph - N/A   Clear
8:15 AM 15.8 °F 5.1 °F 7.7 °F 70% 30.15 in 10.0 mi WNW 8.1 mph - N/A   Clear
8:35 AM 16.3 °F 3.4 °F 7.7 °F 69% 30.16 in 10.0 mi WNW 11.5 mph - N/A   Clear
8:55 AM 16.7 °F 5.3 °F 7.7 °F 68% 30.16 in 10.0 mi WNW 9.2 mph - N/A   Clear
9:15 AM 17.1 °F 4.3 °F 7.5 °F 66% 30.16 in 10.0 mi NW 11.5 mph - N/A   Clear
9:35 AM 17.8 °F 6.6 °F 7.7 °F 65% 30.16 in 10.0 mi NW 9.2 mph - N/A   Clear
9:55 AM 18.3 °F 7.3 °F 7.7 °F 63% 30.16 in 10.0 mi WNW 9.2 mph - N/A   Clear
10:15 AM 19.2 °F 8.4 °F 7.9 °F 61% 30.16 in 10.0 mi WNW 9.2 mph - N/A   Clear
10:35 AM 19.6 °F 10.6 °F 8.6 °F 62% 30.16 in 10.0 mi NW 6.9 mph - N/A   Clear
10:55 AM 20.3 °F 9.8 °F 8.4 °F 60% 30.16 in 10.0 mi NW 9.2 mph - N/A   Clear
11:15 AM 21.2 °F 13.6 °F 9.0 °F 59% 30.16 in 10.0 mi West 5.8 mph - N/A   Clear
11:35 AM 21.4 °F 13.8 °F 8.6 °F 58% 30.15 in 10.0 mi West 5.8 mph - N/A   Clear
12:15 PM 22.1 °F 12.0 °F 8.6 °F 56% 30.15 in 10.0 mi West 9.2 mph - N/A   Clear
12:55 PM 23.0 °F 13.1 °F 9.1 °F 55% 30.14 in 10.0 mi West 9.2 mph - N/A   Clear
1:15 PM 23.0 °F 13.9 °F 9.0 °F 55% 30.13 in 10.0 mi WNW 8.1 mph - N/A   Clear
1:35 PM 23.5 °F 14.5 °F 8.8 °F 53% 30.13 in 10.0 mi WNW 8.1 mph - N/A   Clear
1:55 PM 24.1 °F 15.2 °F 9.5 °F 54% 30.13 in 10.0 mi West 8.1 mph - N/A   Clear
2:15 PM 24.4 °F 15.6 °F 9.0 °F 52% 30.13 in 10.0 mi West 8.1 mph - N/A   Clear
2:35 PM 24.6 °F 16.7 °F 9.3 °F 52% 30.12 in 10.0 mi West 6.9 mph - N/A   Clear
2:55 PM 24.4 °F 14.9 °F 8.4 °F 51% 30.12 in 10.0 mi West 9.2 mph - N/A   Clear
3:15 PM 24.4 °F 15.6 °F 7.9 °F 49% 30.13 in 10.0 mi West 8.1 mph - N/A   Clear
3:35 PM 24.3 °F 13.9 °F 7.7 °F 49% 30.13 in 10.0 mi WNW 10.4 mph - N/A   Clear
3:55 PM 24.3 °F 13.9 °F 7.3 °F 49% 30.13 in 10.0 mi West 10.4 mph - N/A   Clear
4:15 PM 24.3 °F 15.4 °F 8.2 °F 51% 30.13 in 10.0 mi West 8.1 mph - N/A   Clear
4:35 PM 23.7 °F 15.6 °F 7.0 °F 49% 30.14 in 10.0 mi WNW 6.9 mph - N/A   Clear
4:55 PM 23.5 °F 15.4 °F 7.0 °F 49% 30.14 in 10.0 mi WNW 6.9 mph - N/A   Clear
5:15 PM 23.0 °F 15.8 °F 7.7 °F 52% 30.14 in 10.0 mi West 5.8 mph - N/A   Clear
5:35 PM 22.1 °F 15.9 °F 8.1 °F 55% 30.14 in 10.0 mi WNW 4.6 mph - N/A   Clear
5:55 PM 21.7 °F 15.5 °F 8.6 °F 57% 30.14 in 10.0 mi West 4.6 mph - N/A   Mostly Cloudy
6:15 PM 21.6 °F 13.0 °F 7.7 °F 55% 30.15 in 10.0 mi WNW 6.9 mph - N/A   Overcast
6:35 PM 20.5 °F 9.2 °F 6.6 °F 55% 30.15 in 10.0 mi NW 10.4 mph - N/A   Scattered Clouds
6:55 PM 19.9 °F 10.1 °F 6.8 °F 57% 30.15 in 10.0 mi NW 8.1 mph - N/A   Scattered Clouds
7:15 PM 19.2 °F 9.3 °F 6.8 °F 59% 30.15 in 10.0 mi NW 8.1 mph - N/A   Scattered Clouds
7:35 PM 18.5 °F 6.8 °F 6.8 °F 60% 30.16 in 10.0 mi NW 10.4 mph - N/A   Clear
7:55 PM 18.1 °F 7.1 °F 6.8 °F 61% 30.16 in 10.0 mi WNW 9.2 mph - N/A   Clear
8:15 PM 17.6 °F 6.4 °F 5.4 °F 59% 30.16 in 10.0 mi WNW 9.2 mph - N/A   Clear
8:35 PM 17.1 °F 5.8 °F 5.0 °F 59% 30.16 in 10.0 mi WNW 9.2 mph - N/A   Clear
8:55 PM 16.3 °F 4.9 °F 5.0 °F 61% 30.16 in 10.0 mi NW 9.2 mph - N/A   Clear
9:15 PM 15.8 °F 2.1 °F 5.0 °F 62% 30.17 in 10.0 mi NW 12.7 mph - N/A   Clear
9:35 PM 15.3 °F 2.0 °F 4.8 °F 63% 30.17 in 10.0 mi NW 11.5 mph - N/A   Clear
9:55 PM 14.7 °F 2.9 °F 4.6 °F 64% 30.17 in 10.0 mi NW 9.2 mph - N/A   Scattered Clouds
10:15 PM 14.4 °F 2.4 °F 4.5 °F 65% 30.17 in 10.0 mi NW 9.2 mph - N/A   Mostly Cloudy
10:35 PM 14.0 °F 2.0 °F 4.5 °F 66% 30.17 in 10.0 mi NW 9.2 mph - N/A   Mostly Cloudy
10:55 PM 13.1 °F 0.1 °F 3.6 °F 66% 30.16 in 10.0 mi NW 10.4 mph - N/A   Scattered Clouds
11:15 PM 12.9 °F -0.2 °F 3.0 °F 65% 30.16 in 10.0 mi NW 10.4 mph 16.1 mph N/A   Clear
11:35 PM 12.6 °F -0.6 °F 2.8 °F 65% 30.16 in 10.0 mi NW 10.4 mph - N/A   Clear
11:55 PM 12.2 °F -0.2 °F 3.0 °F 67% 30.16 in 10.0 mi NW 9.2 mph - N/A   Clear